Time;durP1;ratioP1;P1;durP2;ratioP2;P2;SDS_P1;SDS_P2;PMS_P1;PMS_P2;Temp;Humidity;BMP_temperature;BMP_pressure;BME280_temperature;BME280_humidity;BME280_pressure;Samples;Min_cycle;Max_cycle;Signal;HPM_P1;HPM_P2
2022/05/29 00:00:02;;;;;;;1.48;0.70;;;24.50;39.00;;;;;;5013619;28;20104;-52
2022/05/29 00:02:27;;;;;;;2.20;1.00;;;24.50;39.00;;;;;;5014244;28;20022;-50
2022/05/29 00:04:53;;;;;;;1.70;0.70;;;24.50;39.10;;;;;;5013131;28;20022;-50
2022/05/29 00:07:20;;;;;;;1.95;0.80;;;24.50;39.10;;;;;;5013928;28;20532;-51
2022/05/29 00:09:48;;;;;;;2.13;0.93;;;24.50;39.10;;;;;;5013667;28;20018;-50
2022/05/29 00:12:15;;;;;;;2.92;0.63;;;24.50;39.10;;;;;;5013997;28;20026;-51
2022/05/29 00:14:42;;;;;;;2.28;0.93;;;24.50;39.10;;;;;;5013438;28;20477;-51
2022/05/29 00:17:08;;;;;;;1.42;0.60;;;24.50;39.10;;;;;;5013125;28;20037;-51
2022/05/29 00:19:35;;;;;;;1.48;0.68;;;24.50;39.10;;;;;;5013056;28;20041;-50
2022/05/29 00:22:02;;;;;;;1.92;0.80;;;24.50;39.10;;;;;;5013019;28;20029;-51
2022/05/29 00:24:27;;;;;;;1.83;0.70;;;24.50;39.10;;;;;;5013952;28;20033;-52
2022/05/29 00:26:54;;;;;;;1.70;0.68;;;24.40;38.90;;;;;;5013751;28;20695;-52
2022/05/29 00:29:21;;;;;;;1.70;0.60;;;24.40;38.90;;;;;;5013712;28;20073;-50
2022/05/29 00:31:47;;;;;;;1.88;0.80;;;24.50;39.00;;;;;;4996735;28;20014;-52
2022/05/29 00:34:13;;;;;;;1.27;0.60;;;24.40;38.90;;;;;;5014129;28;20606;-50
2022/05/29 00:36:43;;;;;;;1.33;0.52;;;24.40;38.90;;;;;;5013517;28;20112;-50
2022/05/29 00:39:12;;;;;;;2.25;0.90;;;24.40;38.90;;;;;;5013170;28;20083;-50
2022/05/29 00:41:39;;;;;;;2.28;0.88;;;24.40;38.90;;;;;;5013291;28;20017;-50
2022/05/29 00:44:08;;;;;;;1.77;0.65;;;24.40;38.90;;;;;;5013153;28;20071;-51
2022/05/29 00:46:35;;;;;;;2.55;0.80;;;24.40;39.00;;;;;;5013408;28;20036;-49
2022/05/29 00:49:07;;;;;;;1.30;0.60;;;24.40;39.50;;;;;;5012751;28;20033;-51
2022/05/29 00:51:41;;;;;;;2.20;0.80;;;24.40;38.90;;;;;;5012840;28;20022;-50
2022/05/29 00:54:08;;;;;;;2.28;0.75;;;24.40;39.00;;;;;;5013181;28;20021;-52
2022/05/29 00:56:36;;;;;;;1.15;0.57;;;24.40;39.00;;;;;;5012551;28;20105;-50
2022/05/29 00:59:02;;;;;;;1.27;0.60;;;24.40;39.00;;;;;;5013177;28;20518;-51
2022/05/29 01:01:29;;;;;;;1.95;0.63;;;24.40;39.00;;;;;;5012670;28;20530;-51
2022/05/29 01:03:55;;;;;;;1.85;0.70;;;24.40;39.00;;;;;;5012664;28;20034;-49
2022/05/29 01:06:22;;;;;;;1.58;0.70;;;24.40;39.00;;;;;;5013419;28;20744;-50
2022/05/29 01:08:48;;;;;;;2.15;0.70;;;24.40;39.00;;;;;;5012855;28;20083;-52
2022/05/29 01:11:25;;;;;;;1.65;0.70;;;24.40;39.00;;;;;;5013005;28;20057;-51
2022/05/29 01:14:02;;;;;;;1.95;0.80;;;24.40;39.00;;;;;;5011884;28;20405;-52
2022/05/29 01:16:56;;;;;;;1.30;0.45;;;24.40;39.10;;;;;;5015303;28;20030;-52
2022/05/29 01:19:22;;;;;;;1.88;0.65;;;24.30;39.00;;;;;;5016274;28;20668;-52
2022/05/29 01:22:12;;;;;;;1.58;0.60;;;24.30;39.00;;;;;;5016803;28;20053;-51
2022/05/29 01:24:47;;;;;;;1.33;0.57;;;24.30;39.00;;;;;;5016495;28;20029;-52
2022/05/29 01:27:32;;;;;;;1.52;0.55;;;24.30;39.60;;;;;;5016738;28;20030;-51
2022/05/29 01:30:19;;;;;;;1.25;0.50;;;24.30;39.00;;;;;;5016480;28;20028;-49
2022/05/29 01:33:10;;;;;;;1.85;0.65;;;24.30;38.90;;;;;;5016774;28;20057;-52
2022/05/29 01:35:44;;;;;;;2.05;0.73;;;24.30;38.90;;;;;;5016426;28;20591;-49
2022/05/29 01:38:30;;;;;;;1.42;0.60;;;24.30;38.90;;;;;;5016397;28;20100;-49
2022/05/29 01:41:05;;;;;;;0.95;0.50;;;24.30;39.00;;;;;;5016631;28;20025;-49
2022/05/29 01:43:38;;;;;;;2.00;0.80;;;24.30;38.90;;;;;;5015920;28;20026;-49
2022/05/29 01:46:04;;;;;;;1.05;0.52;;;24.30;39.00;;;;;;5015948;28;20100;-49
2022/05/29 01:48:41;;;;;;;1.88;0.68;;;24.30;39.00;;;;;;5015924;28;20044;-50
2022/05/29 01:51:23;;;;;;;2.03;0.50;;;24.30;39.00;;;;;;5015902;28;20029;-49
2022/05/29 01:54:01;;;;;;;1.88;0.63;;;24.20;38.90;;;;;;5015828;28;20018;-49
2022/05/29 01:56:40;;;;;;;1.35;0.77;;;24.30;39.00;;;;;;5015846;28;20068;-49
2022/05/29 01:59:33;;;;;;;1.35;0.60;;;24.30;39.00;;;;;;5015737;28;20034;-49
2022/05/29 02:02:06;;;;;;;1.00;0.50;;;24.20;38.90;;;;;;5015234;28;20029;-49
2022/05/29 02:04:36;;;;;;;1.30;0.63;;;24.20;38.90;;;;;;5016869;28;20513;-50
2022/05/29 02:10:31;;;;;;;0.98;0.40;;;24.20;38.90;;;;;;5015751;28;20017;-51
2022/05/29 02:13:13;;;;;;;1.45;0.50;;;24.20;38.90;;;;;;5010859;28;20133;-50
2022/05/29 02:16:02;;;;;;;1.35;0.52;;;24.20;38.90;;;;;;5015579;28;20029;-51
2022/05/29 02:18:38;;;;;;;2.03;0.80;;;24.20;38.90;;;;;;5016892;28;20041;-51
2022/05/29 02:21:23;;;;;;;2.42;0.88;;;24.20;38.90;;;;;;5016025;28;20104;-51
2022/05/29 02:23:53;;;;;;;1.73;0.63;;;24.20;38.90;;;;;;5015855;28;20028;-50
2022/05/29 02:26:26;;;;;;;1.00;0.45;;;24.20;38.90;;;;;;5016214;28;20032;-51
2022/05/29 02:28:54;;;;;;;;;;;24.20;39.00;;;;;;5016576;28;20492;-50
2022/05/29 02:31:31;;;;;;;1.77;0.55;;;24.20;38.90;;;;;;5017144;28;19916;-51
2022/05/29 02:34:07;;;;;;;1.15;0.50;;;24.20;38.90;;;;;;5019012;28;20033;-50
2022/05/29 02:37:14;;;;;;;1.33;0.70;;;24.20;38.90;;;;;;5017391;28;20470;-50
2022/05/29 02:39:58;;;;;;;1.50;0.55;;;24.20;38.90;;;;;;5017719;28;20029;-51
2022/05/29 02:42:35;;;;;;;1.52;0.70;;;24.20;38.90;;;;;;5017376;28;20677;-49
2022/05/29 02:45:25;;;;;;;1.13;0.60;;;24.20;38.90;;;;;;5015702;28;20120;-50
2022/05/29 02:47:53;;;;;;;1.38;0.50;;;24.20;38.90;;;;;;5006549;28;20222;-50
2022/05/29 02:50:28;;;;;;;1.17;0.60;;;24.20;38.90;;;;;;5015850;28;20033;-50
2022/05/29 02:52:57;;;;;;;1.23;0.70;;;24.20;38.90;;;;;;5017346;28;20025;-49
2022/05/29 02:55:24;;;;;;;1.17;0.40;;;24.20;38.90;;;;;;5015631;28;20029;-51
2022/05/29 02:57:54;;;;;;;1.25;0.50;;;24.20;38.90;;;;;;5015913;28;20226;-49
2022/05/29 03:00:20;;;;;;;1.95;0.70;;;24.20;38.80;;;;;;5015331;28;20087;-50
2022/05/29 03:03:07;;;;;;;1.20;0.40;;;24.20;38.80;;;;;;5014811;28;20021;-51
2022/05/29 03:05:49;;;;;;;1.20;0.50;;;24.20;38.80;;;;;;5014732;28;20030;-48
2022/05/29 03:08:44;;;;;;;1.42;0.50;;;24.10;38.80;;;;;;5015286;28;20033;-52
2022/05/29 03:11:14;;;;;;;1.02;0.40;;;24.20;38.80;;;;;;4993815;28;20748;-50
2022/05/29 03:14:03;;;;;;;1.60;0.57;;;24.10;38.90;;;;;;5015079;28;20020;-49
2022/05/29 03:16:41;;;;;;;1.38;0.70;;;24.10;38.90;;;;;;5014138;28;20125;-50
2022/05/29 03:19:25;;;;;;;0.90;0.40;;;24.20;38.90;;;;;;5016230;28;20034;-49
2022/05/29 03:21:57;;;;;;;1.23;0.60;;;24.10;38.90;;;;;;5014941;28;20036;-51
2022/05/29 03:24:42;;;;;;;1.40;0.63;;;24.10;38.90;;;;;;5014503;28;20030;-50
2022/05/29 03:27:55;;;;;;;2.20;0.35;;;24.10;38.90;;;;;;5014763;28;20331;-51
2022/05/29 03:30:31;;;;;;;1.45;0.60;;;24.10;38.90;;;;;;5013246;28;20038;-49
2022/05/29 03:33:01;;;;;;;1.10;0.40;;;24.10;38.80;;;;;;5013727;28;20026;-51
2022/05/29 03:35:29;;;;;;;2.13;0.60;;;24.10;38.80;;;;;;5014924;28;20393;-51
2022/05/29 03:37:56;;;;;;;0.95;0.40;;;24.10;38.80;;;;;;5014309;28;20097;-52
2022/05/29 03:40:23;;;;;;;0.70;0.40;;;24.10;38.80;;;;;;5014646;28;20033;-50
2022/05/29 03:42:49;;;;;;;0.98;0.45;;;24.10;38.80;;;;;;5022419;28;20144;-49
2022/05/29 03:45:14;;;;;;;0.85;0.40;;;24.10;38.80;;;;;;5014131;28;20104;-49
2022/05/29 03:47:40;;;;;;;1.45;0.47;;;24.10;38.80;;;;;;5014137;28;20026;-51
2022/05/29 03:50:12;;;;;;;1.63;0.70;;;24.10;38.80;;;;;;5014016;28;20040;-50
2022/05/29 03:52:38;;;;;;;2.60;0.70;;;24.10;38.80;;;;;;5014089;28;20088;-50
2022/05/29 03:55:04;;;;;;;1.23;0.50;;;24.10;38.80;;;;;;5014152;28;20017;-50
2022/05/29 03:57:30;;;;;;;1.45;0.40;;;24.10;38.80;;;;;;5013404;28;20438;-50
2022/05/29 03:59:56;;;;;;;1.70;0.57;;;24.10;38.80;;;;;;5013928;28;20026;-50
2022/05/29 04:02:22;;;;;;;1.00;0.40;;;24.10;38.80;;;;;;5014245;28;20034;-49
2022/05/29 04:04:48;;;;;;;1.48;0.57;;;24.10;38.80;;;;;;5013821;28;20481;-49
2022/05/29 04:07:14;;;;;;;0.80;0.40;;;24.10;38.90;;;;;;5014280;28;20026;-51
2022/05/29 04:12:24;;;;;;;0.73;0.32;;;24.00;38.80;;;;;;5012343;28;20025;-51
2022/05/29 04:14:51;;;;;;;1.08;0.32;;;24.00;38.80;;;;;;5013398;28;20076;-50
2022/05/29 04:17:19;;;;;;;1.80;0.63;;;24.00;38.80;;;;;;5013760;28;20017;-50
2022/05/29 04:19:45;;;;;;;1.27;0.60;;;24.00;38.80;;;;;;5013308;28;20148;-50
2022/05/29 04:22:17;;;;;;;1.30;0.40;;;24.00;38.80;;;;;;5014097;28;20025;-51
2022/05/29 04:24:43;;;;;;;1.15;0.32;;;24.10;38.90;;;;;;5013992;28;20761;-50
2022/05/29 04:27:11;;;;;;;0.60;0.40;;;24.10;38.90;;;;;;5013659;28;20057;-50
2022/05/29 04:29:38;;;;;;;0.98;0.43;;;24.00;38.80;;;;;;5013814;28;20033;-50
2022/05/29 04:34:53;;;;;;;1.15;0.47;;;24.10;38.90;;;;;;5014087;28;20029;-52
2022/05/29 04:37:18;;;;;;;1.30;0.50;;;24.00;38.80;;;;;;5013830;28;20017;-50
2022/05/29 04:39:44;;;;;;;0.50;0.28;;;24.00;38.80;;;;;;5013396;28;20370;-49
2022/05/29 04:42:10;;;;;;;0.77;0.40;;;24.00;38.80;;;;;;5013839;28;20089;-51
2022/05/29 04:44:36;;;;;;;1.42;0.55;;;24.00;38.80;;;;;;5013761;28;20041;-51
2022/05/29 04:47:02;;;;;;;1.30;0.50;;;24.00;38.80;;;;;;5014172;28;20036;-52
2022/05/29 04:49:29;;;;;;;1.38;0.50;;;24.00;38.80;;;;;;5013842;28;20370;-49
2022/05/29 04:51:55;;;;;;;0.90;0.50;;;24.00;38.80;;;;;;5017139;28;20029;-50
2022/05/29 04:54:21;;;;;;;1.08;0.50;;;24.00;38.70;;;;;;5017667;28;20037;-50
2022/05/29 04:56:49;;;;;;;2.08;0.77;;;24.00;38.80;;;;;;5018063;28;20037;-50
2022/05/29 04:59:15;;;;;;;1.00;0.50;;;24.00;38.70;;;;;;5017676;28;20040;-50
2022/05/29 05:01:41;;;;;;;0.82;0.50;;;24.00;38.70;;;;;;5017034;28;20025;-48
2022/05/29 05:04:07;;;;;;;1.10;0.60;;;24.00;38.70;;;;;;5016982;28;20026;-50
2022/05/29 05:06:33;;;;;;;1.88;0.55;;;24.00;38.80;;;;;;5016869;28;20036;-51
2022/05/29 05:08:59;;;;;;;1.30;0.38;;;24.00;38.70;;;;;;5017186;28;20654;-51
2022/05/29 05:11:25;;;;;;;1.13;0.50;;;24.00;38.70;;;;;;5017240;28;20258;-51
2022/05/29 05:13:51;;;;;;;1.13;0.40;;;24.00;38.80;;;;;;5017038;28;20020;-50
2022/05/29 05:16:17;;;;;;;1.23;0.38;;;24.00;38.80;;;;;;5015889;28;20101;-50
2022/05/29 05:18:42;;;;;;;1.33;0.40;;;24.00;38.80;;;;;;5016824;28;20111;-49
2022/05/29 05:21:08;;;;;;;1.58;0.50;;;24.00;38.80;;;;;;5017235;28;20025;-50
2022/05/29 05:23:35;;;;;;;1.88;0.60;;;24.00;38.80;;;;;;5017434;28;20034;-51
2022/05/29 05:26:01;;;;;;;1.13;0.40;;;24.00;38.80;;;;;;5018241;28;20033;-49
2022/05/29 05:28:27;;;;;;;1.38;0.52;;;24.00;38.80;;;;;;5017151;28;20040;-51
2022/05/29 05:30:52;;;;;;;2.10;0.60;;;24.00;38.80;;;;;;5017233;28;20026;-49
2022/05/29 05:33:19;;;;;;;0.98;0.40;;;24.00;38.80;;;;;;5016701;28;20114;-50
2022/05/29 05:35:44;;;;;;;1.10;0.50;;;24.00;38.80;;;;;;5016497;28;20498;-50
2022/05/29 05:38:10;;;;;;;1.08;0.60;;;24.00;38.80;;;;;;5016706;28;20097;-51
2022/05/29 05:40:36;;;;;;;1.60;0.60;;;24.00;38.80;;;;;;5014663;28;20081;-46
2022/05/29 05:43:01;;;;;;;1.77;0.60;;;24.00;39.30;;;;;;5015961;28;20089;-45
2022/05/29 05:45:27;;;;;;;0.68;0.40;;;24.00;39.40;;;;;;5016518;28;20719;-46
2022/05/29 05:47:52;;;;;;;1.60;0.57;;;24.00;39.50;;;;;;5016508;28;20115;-47
2022/05/29 05:50:18;;;;;;;2.28;0.70;;;24.00;39.50;;;;;;5016513;28;20089;-46
2022/05/29 05:52:44;;;;;;;1.90;0.63;;;24.00;39.60;;;;;;5015754;28;20021;-48
2022/05/29 05:55:11;;;;;;;1.20;0.60;;;24.00;39.50;;;;;;5015749;28;20247;-47
2022/05/29 05:57:41;;;;;;;1.70;0.68;;;24.00;39.50;;;;;;5015928;28;20029;-47
2022/05/29 06:00:14;;;;;;;2.17;0.77;;;24.00;39.60;;;;;;5015890;28;20508;-47
2022/05/29 06:02:41;;;;;;;1.95;0.65;;;24.00;39.60;;;;;;5005716;28;20441;-48
2022/05/29 06:05:08;;;;;;;1.60;0.65;;;24.00;39.60;;;;;;5024264;28;20101;-47
2022/05/29 06:07:34;;;;;;;1.85;0.50;;;24.00;39.60;;;;;;5026746;28;20029;-47
2022/05/29 06:10:00;;;;;;;1.75;0.60;;;24.10;39.70;;;;;;5026895;28;20045;-47
2022/05/29 06:12:25;;;;;;;1.25;0.60;;;24.00;39.90;;;;;;5026440;28;20029;-45
2022/05/29 06:14:54;;;;;;;1.52;0.80;;;24.00;39.90;;;;;;5026788;28;20033;-47
2022/05/29 06:17:20;;;;;;;1.98;0.70;;;24.10;40.00;;;;;;5026016;28;20031;-47
2022/05/29 06:19:45;;;;;;;1.20;0.50;;;24.10;40.00;;;;;;5026507;28;20030;-46
2022/05/29 06:22:11;;;;;;;1.25;0.40;;;24.10;40.10;;;;;;5026123;28;20117;-48
2022/05/29 06:24:37;;;;;;;2.75;0.60;;;24.10;40.10;;;;;;5026528;28;20131;-47
2022/05/29 06:27:03;;;;;;;2.33;0.70;;;24.10;40.20;;;;;;5026556;28;20030;-47
2022/05/29 06:29:30;;;;;;;1.48;0.60;;;24.10;40.20;;;;;;5026189;28;20545;-48
2022/05/29 06:32:00;;;;;;;1.30;0.40;;;24.10;40.10;;;;;;5025712;28;20037;-49
2022/05/29 06:34:26;;;;;;;1.42;0.60;;;24.10;40.00;;;;;;5025303;28;20065;-48
2022/05/29 06:36:52;;;;;;;1.58;0.60;;;24.10;40.00;;;;;;5024464;28;20562;-47
2022/05/29 06:39:18;;;;;;;2.17;0.60;;;24.10;40.10;;;;;;5025155;28;20025;-48
2022/05/29 06:41:44;;;;;;;2.90;0.63;;;24.20;40.20;;;;;;5025667;28;20108;-52
2022/05/29 06:44:10;;;;;;;2.22;0.85;;;24.10;40.00;;;;;;5025339;28;20461;-49
2022/05/29 06:46:36;;;;;;;1.48;0.63;;;24.20;39.70;;;;;;5024521;28;20029;-50
2022/05/29 06:49:01;;;;;;;1.17;0.55;;;24.20;39.60;;;;;;5024714;28;20071;-49
2022/05/29 06:51:27;;;;;;;2.20;0.70;;;24.20;39.40;;;;;;5025580;28;20055;-48
2022/05/29 06:53:56;;;;;;;1.58;0.68;;;24.20;39.50;;;;;;5025075;28;20121;-49
2022/05/29 06:56:23;;;;;;;1.38;0.35;;;24.20;39.60;;;;;;5019223;28;20530;-51
2022/05/29 06:58:49;;;;;;;0.88;0.30;;;24.20;40.50;;;;;;5013968;28;20115;-50
2022/05/29 07:07:01;;;;;;;2.15;0.50;;;24.20;39.80;;;;;;5014888;28;20029;-50
2022/05/29 07:09:29;;;;;;;2.20;0.65;;;24.30;39.60;;;;;;5014528;28;20022;-49
2022/05/29 07:12:11;;;;;;;1.38;0.63;;;24.30;39.60;;;;;;5013401;28;20029;-49
2022/05/29 07:14:41;;;;;;;1.10;0.45;;;24.30;39.50;;;;;;5014751;28;20159;-49
2022/05/29 07:17:07;;;;;;;1.30;0.57;;;24.40;39.50;;;;;;5015126;28;20242;-49
2022/05/29 07:19:34;;;;;;;1.48;0.45;;;24.40;39.40;;;;;;5015079;28;20036;-49
2022/05/29 07:22:00;;;;;;;2.28;0.60;;;24.40;39.30;;;;;;5013756;28;20030;-48
2022/05/29 07:24:28;;;;;;;2.22;0.80;;;24.40;39.40;;;;;;5015293;28;20038;-48
2022/05/29 07:26:54;;;;;;;1.63;0.50;;;24.50;39.40;;;;;;5013738;28;20059;-49
2022/05/29 07:29:22;;;;;;;1.58;0.50;;;24.40;39.30;;;;;;5014481;28;20147;-48
2022/05/29 07:31:49;;;;;;;1.80;0.65;;;24.40;39.30;;;;;;5017657;28;20065;-49
2022/05/29 07:34:15;;;;;;;1.30;0.43;;;24.40;39.40;;;;;;5024134;28;20021;-49
2022/05/29 07:36:41;;;;;;;1.58;0.50;;;24.40;39.40;;;;;;5025016;28;20026;-50
2022/05/29 07:39:08;;;;;;;1.52;0.55;;;24.40;39.30;;;;;;5016322;28;20449;-51
2022/05/29 07:44:18;;;;;;;1.90;0.40;;;24.40;39.30;;;;;;5012185;28;20031;-51
2022/05/29 07:46:43;;;;;;;2.05;0.60;;;24.40;39.30;;;;;;5013828;28;20029;-52
2022/05/29 07:49:09;;;;;;;1.10;0.47;;;24.40;39.30;;;;;;5013210;28;20036;-52
2022/05/29 07:51:35;;;;;;;1.48;0.52;;;24.40;39.30;;;;;;5012899;28;20040;-52
2022/05/29 07:54:01;;;;;;;1.63;0.70;;;24.50;39.60;;;;;;5013274;28;20100;-52
2022/05/29 07:56:27;;;;;;;2.00;0.60;;;24.40;39.70;;;;;;5013873;28;20565;-53
2022/05/29 07:58:53;;;;;;;3.17;1.15;;;24.40;39.70;;;;;;5013565;28;20253;-52
2022/05/29 08:01:19;;;;;;;1.80;0.63;;;24.40;39.70;;;;;;5014132;28;20014;-52
2022/05/29 08:03:46;;;;;;;3.17;0.80;;;24.40;39.80;;;;;;5012976;28;20034;-52
2022/05/29 08:06:12;;;;;;;2.20;0.63;;;24.40;39.90;;;;;;5013535;28;20492;-53
2022/05/29 08:08:39;;;;;;;1.25;0.50;;;24.40;40.60;;;;;;5012917;28;20046;-52
2022/05/29 08:11:06;;;;;;;1.88;0.52;;;24.40;40.80;;;;;;5012626;28;20018;-52
2022/05/29 08:13:33;;;;;;;2.13;0.77;;;24.50;40.80;;;;;;5013299;28;20068;-51
2022/05/29 08:15:59;;;;;;;2.55;0.65;;;24.40;40.80;;;;;;5012098;28;20037;-48
2022/05/29 08:18:25;;;;;;;6.32;1.20;;;24.40;40.70;;;;;;5012212;28;20709;-48
2022/05/29 08:20:52;;;;;;;3.05;0.90;;;24.40;41.40;;;;;;5012652;28;20504;-47
2022/05/29 08:23:18;;;;;;;2.92;0.70;;;24.40;41.70;;;;;;5012744;28;20030;-51
2022/05/29 08:30:37;;;;;;;3.78;1.00;;;24.40;40.80;;;;;;5014453;28;20028;-48
2022/05/29 08:31:27;;;;;;;6.15;1.25;;;24.40;41.10;;;;;;5013343;28;20642;-51
2022/05/29 08:33:53;;;;;;;4.70;1.48;;;24.50;41.60;;;;;;5016128;28;20037;-54
2022/05/29 08:36:24;;;;;;;4.45;2.08;;;24.50;41.60;;;;;;5015352;28;20014;-52
2022/05/29 08:38:52;;;;;;;10.20;3.20;;;24.50;41.30;;;;;;5015374;28;20041;-51
2022/05/29 08:41:29;;;;;;;7.80;3.42;;;24.50;41.10;;;;;;5014490;28;20029;-51
2022/05/29 08:44:07;;;;;;;10.45;3.67;;;24.50;40.90;;;;;;5012322;28;20021;-53
2022/05/29 08:46:51;;;;;;;7.30;3.53;;;24.50;40.90;;;;;;5016072;28;20506;-52
2022/05/29 08:49:21;;;;;;;9.25;3.10;;;24.50;40.80;;;;;;5022425;28;20108;-52
2022/05/29 08:52:05;;;;;;;9.18;3.60;;;24.50;41.50;;;;;;5023258;28;20112;-53
2022/05/29 08:54:58;;;;;;;8.88;3.10;;;24.50;40.80;;;;;;5023918;28;20013;-52
2022/05/29 08:57:43;;;;;;;6.80;2.95;;;24.50;40.80;;;;;;5022172;28;20029;-52
2022/05/29 09:00:20;;;;;;;8.55;3.15;;;24.50;40.70;;;;;;5023419;28;20036;-52
2022/05/29 09:02:58;;;;;;;8.63;3.15;;;24.50;40.70;;;;;;5024117;28;20036;-52
2022/05/29 09:06:10;;;;;;;7.35;2.58;;;24.50;40.90;;;;;;5023686;28;20493;-53
2022/05/29 09:09:24;;;;;;;6.72;2.80;;;24.50;40.80;;;;;;5015838;28;20049;-54
2022/05/29 09:12:03;;;;;;;7.28;2.80;;;24.50;40.80;;;;;;4981200;28;20038;-52
2022/05/29 09:14:43;;;;;;;6.57;2.28;;;24.50;40.80;;;;;;5022140;28;20034;-50
2022/05/29 09:17:34;;;;;;;5.40;2.45;;;24.50;40.90;;;;;;5023408;28;20490;-52
2022/05/29 09:20:07;;;;;;;7.22;2.40;;;24.50;40.90;;;;;;5022972;28;20049;-51
2022/05/29 09:22:39;;;;;;;6.28;2.75;;;24.50;40.90;;;;;;5022785;28;20112;-51
2022/05/29 09:25:11;;;;;;;5.60;2.45;;;24.50;40.90;;;;;;5022984;28;20029;-50
2022/05/29 09:27:42;;;;;;;6.88;2.45;;;24.50;40.90;;;;;;5023604;28;20033;-52
2022/05/29 09:30:08;;;;;;;10.20;2.50;;;24.50;40.90;;;;;;5023675;28;20513;-51
2022/05/29 09:32:40;;;;;;;6.05;2.53;;;24.50;40.80;;;;;;5023537;28;20045;-50
2022/05/29 09:35:06;;;;;;;7.10;2.40;;;24.50;41.00;;;;;;5023226;28;20084;-51
2022/05/29 09:37:47;;;;;;;7.10;2.40;;;24.50;41.70;;;;;;5025987;28;20551;-50
2022/05/29 09:40:25;;;;;;;7.03;2.78;;;24.50;41.00;;;;;;5026808;28;20026;-51
2022/05/29 09:42:53;;;;;;;7.70;2.88;;;24.50;40.90;;;;;;5026516;28;20090;-51
2022/05/29 09:45:32;;;;;;;6.63;2.70;;;24.50;40.90;;;;;;5026928;28;20037;-53
2022/05/29 09:50:57;;;;;;;6.05;2.28;;;24.50;40.90;;;;;;5026735;28;20072;-52
2022/05/29 09:53:31;;;;;;;4.53;1.90;;;24.50;40.70;;;;;;5026727;28;20113;-51
2022/05/29 09:56:06;;;;;;;4.57;1.90;;;24.50;40.70;;;;;;5026958;28;20039;-52
2022/05/29 09:58:54;;;;;;;5.45;1.90;;;24.50;40.50;;;;;;5026627;28;20021;-51
2022/05/29 10:01:34;;;;;;;6.55;2.80;;;24.40;40.50;;;;;;5026961;28;20022;-53
2022/05/29 10:04:03;;;;;;;4.72;1.92;;;24.40;40.50;;;;;;5026515;28;20045;-53
2022/05/29 10:06:42;;;;;;;4.78;1.73;;;24.40;40.40;;;;;;5026929;28;20030;-52
2022/05/29 10:09:10;;;;;;;4.00;1.77;;;24.50;40.50;;;;;;5027016;28;20183;-51
2022/05/29 10:11:37;;;;;;;4.93;1.92;;;24.40;40.40;;;;;;5026768;28;20033;-53
2022/05/29 10:14:33;;;;;;;4.93;1.90;;;24.40;40.40;;;;;;5026943;28;20108;-52
2022/05/29 10:16:58;;;;;;;6.53;2.35;;;24.40;41.10;;;;;;5026718;28;20123;-51
2022/05/29 10:19:32;;;;;;;4.22;1.42;;;24.40;40.30;;;;;;5025992;28;20104;-53
2022/05/29 10:21:58;;;;;;;4.07;1.50;;;24.40;40.40;;;;;;5026579;28;20037;-52
2022/05/29 10:24:31;;;;;;;4.05;1.73;;;24.40;40.30;;;;;;5025798;28;20056;-52
2022/05/29 10:27:00;;;;;;;4.22;1.50;;;24.40;40.30;;;;;;5026529;28;20064;-52
2022/05/29 10:29:31;;;;;;;4.97;1.70;;;24.40;40.30;;;;;;5007136;28;20108;-51
2022/05/29 10:31:58;;;;;;;4.22;2.00;;;24.50;40.40;;;;;;5006179;28;20661;-51
2022/05/29 10:34:28;;;;;;;5.07;1.98;;;24.40;40.50;;;;;;5013100;28;20029;-50
2022/05/29 10:36:54;;;;;;;3.55;1.58;;;24.40;40.50;;;;;;5026056;28;20041;-50
2022/05/29 10:39:29;;;;;;;4.68;1.58;;;24.40;40.50;;;;;;5026360;28;20095;-52
2022/05/29 10:41:57;;;;;;;3.05;1.15;;;24.40;40.50;;;;;;5026115;28;20033;-51
2022/05/29 10:44:42;;;;;;;4.65;1.40;;;24.40;40.60;;;;;;5026023;28;20087;-52
2022/05/29 10:47:14;;;;;;;4.22;1.92;;;24.40;40.60;;;;;;5026128;28;20056;-52
2022/05/29 10:49:52;;;;;;;2.72;1.33;;;24.40;40.60;;;;;;5024404;28;20104;-51
2022/05/29 10:52:30;;;;;;;3.75;1.42;;;24.50;40.80;;;;;;5025040;28;20029;-52
2022/05/29 10:55:35;;;;;;;3.45;1.48;;;24.40;40.70;;;;;;5026291;28;20029;-51
2022/05/29 10:58:23;;;;;;;3.80;1.20;;;24.50;40.80;;;;;;5024366;28;20079;-51
2022/05/29 11:04:51;;;;;;;2.78;1.10;;;24.40;40.70;;;;;;5025040;28;20135;-53
2022/05/29 11:07:34;;;;;;;2.63;1.10;;;24.40;40.70;;;;;;5025319;28;20042;-52
2022/05/29 11:10:23;;;;;;;3.42;1.50;;;24.50;40.80;;;;;;5025643;28;20025;-51
2022/05/29 11:13:18;;;;;;;2.60;1.00;;;24.40;40.70;;;;;;5025122;28;20014;-52
2022/05/29 11:15:57;;;;;;;3.20;1.30;;;24.40;40.70;;;;;;5025517;28;20033;-50
2022/05/29 11:18:44;;;;;;;4.03;1.48;;;24.40;40.70;;;;;;5025446;28;20025;-52
2022/05/29 11:21:12;;;;;;;2.53;1.02;;;24.50;40.90;;;;;;5005180;28;20033;-53
2022/05/29 11:24:08;;;;;;;3.80;1.45;;;24.40;40.70;;;;;;5005215;28;20164;-51
2022/05/29 11:26:42;;;;;;;3.20;1.30;;;24.40;40.80;;;;;;5024763;28;20033;-51
2022/05/29 11:29:46;;;;;;;3.00;1.05;;;24.40;40.70;;;;;;5024716;28;20041;-52
2022/05/29 11:32:20;;;;;;;2.92;1.00;;;24.40;40.70;;;;;;5024783;28;20105;-52
2022/05/29 11:35:15;;;;;;;3.00;1.17;;;24.40;40.70;;;;;;5024431;28;20035;-53
2022/05/29 11:38:05;;;;;;;2.97;1.38;;;24.40;40.60;;;;;;5023343;28;20079;-52
2022/05/29 11:40:39;;;;;;;2.28;0.90;;;24.40;40.50;;;;;;5025162;28;20033;-52
2022/05/29 11:43:11;;;;;;;3.33;1.20;;;24.40;40.50;;;;;;5024782;28;20214;-52
2022/05/29 11:51:47;;;;;;;2.25;0.90;;;24.40;40.70;;;;;;5005406;28;20062;-54
2022/05/29 11:54:41;;;;;;;3.15;1.35;;;24.40;40.70;;;;;;5005137;28;20171;-52
2022/05/29 11:57:27;;;;;;;2.60;1.00;;;24.50;40.80;;;;;;5005002;28;20049;-52
2022/05/29 12:00:15;;;;;;;2.50;1.05;;;24.40;40.80;;;;;;5005228;28;20753;-53
2022/05/29 12:03:05;;;;;;;1.92;0.80;;;24.40;40.70;;;;;;5004858;28;20037;-52
2022/05/29 12:06:07;;;;;;;2.33;0.98;;;24.40;40.80;;;;;;5019148;28;20075;-54
2022/05/29 12:08:54;;;;;;;2.58;1.13;;;24.40;40.90;;;;;;5014949;28;20049;-51
2022/05/29 12:11:36;;;;;;;2.50;1.00;;;24.50;40.90;;;;;;5024400;28;20037;-52
2022/05/29 12:14:04;;;;;;;3.10;1.00;;;24.40;40.80;;;;;;5024285;28;20029;-54
2022/05/29 12:16:34;;;;;;;2.80;1.17;;;24.40;40.90;;;;;;5024394;28;20042;-51
2022/05/29 12:19:06;;;;;;;4.03;1.05;;;24.40;40.90;;;;;;5023762;28;20022;-53
2022/05/29 12:21:41;;;;;;;2.75;0.82;;;24.40;40.90;;;;;;5024198;28;20467;-52
2022/05/29 12:24:10;;;;;;;2.10;0.98;;;24.40;41.00;;;;;;5024775;28;20034;-51
2022/05/29 12:26:45;;;;;;;1.92;0.77;;;24.50;41.00;;;;;;5023215;28;20605;-52
2022/05/29 12:29:18;;;;;;;1.95;0.85;;;24.40;40.90;;;;;;5023958;28;20060;-52
2022/05/29 12:31:48;;;;;;;2.45;1.00;;;24.40;40.90;;;;;;5024085;28;20041;-54
2022/05/29 12:34:25;;;;;;;2.50;0.98;;;24.50;41.00;;;;;;5024016;28;20033;-51
2022/05/29 12:37:29;;;;;;;2.38;0.93;;;24.40;40.90;;;;;;5024632;28;20248;-52
2022/05/29 12:40:13;;;;;;;3.97;1.23;;;24.40;40.80;;;;;;5023912;28;20527;-51
2022/05/29 12:43:14;;;;;;;2.30;0.85;;;24.40;40.60;;;;;;5023478;28;20041;-54
2022/05/29 12:45:51;;;;;;;2.63;0.93;;;24.40;40.70;;;;;;5024113;28;20104;-52
2022/05/29 12:48:20;;;;;;;2.33;0.93;;;24.40;40.70;;;;;;5023734;28;20030;-52
2022/05/29 12:51:14;;;;;;;2.15;1.00;;;24.40;40.80;;;;;;5023605;28;20033;-53
2022/05/29 12:54:07;;;;;;;2.53;1.00;;;24.40;40.80;;;;;;5023937;28;20064;-50
2022/05/29 12:56:51;;;;;;;;;;;24.40;40.80;;;;;;5024533;28;20945;-52
2022/05/29 12:59:58;;;;;;;1.85;0.80;;;24.40;40.80;;;;;;5024707;28;20642;-53
2022/05/29 13:02:57;;;;;;;1.67;0.70;;;24.40;40.80;;;;;;5023482;28;20033;-54
2022/05/29 13:05:32;;;;;;;2.17;0.80;;;24.40;40.90;;;;;;5023844;28;20041;-53
2022/05/29 13:08:00;;;;;;;1.67;0.68;;;24.40;40.90;;;;;;5023643;28;20075;-56
2022/05/29 13:10:36;;;;;;;2.33;0.90;;;24.40;40.90;;;;;;5020484;28;20560;-55
2022/05/29 13:13:13;;;;;;;3.17;0.90;;;24.40;40.90;;;;;;5016424;28;20022;-55
2022/05/29 13:15:40;;;;;;;2.92;0.90;;;24.40;41.10;;;;;;5019278;28;20034;-52
2022/05/29 13:21:14;;;;;;;6.00;0.95;;;24.40;41.20;;;;;;5019381;28;20062;-50
2022/05/29 13:23:52;;;;;;;3.42;1.00;;;24.40;41.20;;;;;;5024489;28;20124;-54
2022/05/29 13:26:22;;;;;;;2.00;0.80;;;24.40;41.30;;;;;;5024614;28;20033;-51
2022/05/29 13:28:51;;;;;;;2.72;0.90;;;24.40;41.30;;;;;;5025345;28;20036;-50
2022/05/29 13:31:18;;;;;;;4.03;1.17;;;24.40;41.30;;;;;;5025383;28;20025;-49
2022/05/29 13:34:26;;;;;;;3.50;1.50;;;24.40;41.40;;;;;;5025690;28;20037;-48
2022/05/29 13:36:53;;;;;;;6.45;2.90;;;24.40;41.50;;;;;;5025723;28;20029;-49
2022/05/29 13:39:28;;;;;;;8.18;4.63;;;24.40;42.30;;;;;;5026101;28;20711;-48
2022/05/29 13:42:10;;;;;;;13.15;9.57;;;24.40;42.30;;;;;;5025039;28;20038;-52
2022/05/29 13:44:37;;;;;;;16.08;10.55;;;24.50;42.70;;;;;;5025600;28;20033;-52
2022/05/29 13:47:22;;;;;;;18.23;12.18;;;24.50;42.60;;;;;;5025662;28;20030;-54
2022/05/29 13:50:02;;;;;;;21.63;14.38;;;24.60;42.10;;;;;;5025618;28;20040;-53
2022/05/29 13:52:51;;;;;;;26.40;16.85;;;24.60;41.90;;;;;;5018672;28;20033;-53
2022/05/29 13:55:23;;;;;;;27.85;18.08;;;24.60;41.80;;;;;;5017298;28;20075;-53